Terminal Aerodrome Forecast
Issued by NWS Omaha/Valley, NE

Home | Current Version | Previous Version | Text Only | Print | Product List | Glossary On
Versions: 1 2 3 4 5 6 7 8 9 10 11 12 13 14 15 16 17
000
FTUS43 KOAX 191129
TAFOMA
TAF
KOMA 191129Z 1912/2012 35020G30KT 3SM -FZDZ BR OVC005
     FM191400 35015G23KT 5SM -FZDZ BR OVC008
     FM191600 35013KT P6SM OVC008
     FM191800 35012KT P6SM OVC012
     FM192300 35008KT P6SM OVC015 PROB30 2003/2006 4SM -FZDZ OVC003
     FM200600 36008KT 3SM -FZDZ BR OVC008
     FM201100 34011KT P6SM -FZDZ OVC015=

USA.gov is the U.S. government's official web portal to all federal, state and local government web resources and services.